createdAt,value
2023-03-22T00:00:43.174Z,11.45
2023-03-22T00:03:46.013Z,13.93
2023-03-22T00:06:47.674Z,15.02
2023-03-22T00:09:49.226Z,12.85
2023-03-22T00:12:58.144Z,15.57
2023-03-22T00:15:59.842Z,12.77
2023-03-22T00:19:01.485Z,13.38
2023-03-22T00:22:06.092Z,15.77
2023-03-22T00:25:08.019Z,13.18
2023-03-22T00:28:09.685Z,13.13
2023-03-22T00:31:11.697Z,13.68
2023-03-22T00:34:13.262Z,12.98
2023-03-22T00:37:16.361Z,10.32
2023-03-22T00:40:18.471Z,17.40
2023-03-22T00:43:20.271Z,14.80
2023-03-22T00:46:22.342Z,12.32
2023-03-22T00:49:25.425Z,15.00
2023-03-22T00:52:28.774Z,12.77
2023-03-22T00:55:31.096Z,11.23
2023-03-22T00:58:35.558Z,12.77
2023-03-22T01:01:37.178Z,14.40
2023-03-22T01:04:39.979Z,13.05
2023-03-22T01:07:42.969Z,14.45
2023-03-22T01:10:44.792Z,12.05
2023-03-22T01:13:47.797Z,14.38
2023-03-22T01:16:49.359Z,12.50
2023-03-22T01:19:50.987Z,13.13
2023-03-22T01:22:52.708Z,15.35
2023-03-22T01:25:54.261Z,15.82
2023-03-22T01:28:55.880Z,15.45
2023-03-22T01:31:57.570Z,17.65
2023-03-22T01:34:59.177Z,15.73
2023-03-22T01:38:01.347Z,15.40
2023-03-22T01:41:03.219Z,17.17
2023-03-22T01:44:17.278Z,16.42
2023-03-22T01:47:18.823Z,16.73
2023-03-22T01:50:21.497Z,19.05
2023-03-22T01:53:26.117Z,17.27
2023-03-22T01:56:31.131Z,15.18
2023-03-22T01:59:32.800Z,17.27
2023-03-22T02:02:34.793Z,16.38
2023-03-22T02:05:37.029Z,17.48
2023-03-22T02:08:40.468Z,15.38
2023-03-22T02:11:46.143Z,17.45
2023-03-22T02:15:09.200Z,16.27
2023-03-22T02:18:49.990Z,17.52
2023-03-22T02:22:03.824Z,23.08
2023-03-22T02:25:42.758Z,18.13
2023-03-22T02:28:56.543Z,17.80
2023-03-22T02:32:22.151Z,16.35
2023-03-22T02:35:27.660Z,17.65
2023-03-22T02:38:57.849Z,19.00
2023-03-22T02:42:05.163Z,21.80
2023-03-22T02:45:27.667Z,20.92
2023-03-22T02:48:47.976Z,16.30
2023-03-22T02:51:59.915Z,20.48
2023-03-22T02:55:01.657Z,19.17
2023-03-22T02:58:09.420Z,20.92
2023-03-22T03:01:19.869Z,19.08
2023-03-22T03:04:30.045Z,25.23
2023-03-22T03:07:31.740Z,24.60
2023-03-22T03:10:34.365Z,17.08
2023-03-22T03:13:35.935Z,23.27
2023-03-22T03:16:37.775Z,19.63
2023-03-22T03:19:49.725Z,21.80
2023-03-22T03:23:32.741Z,22.55
2023-03-22T03:27:04.119Z,23.70
2023-03-22T03:30:14.634Z,23.80
2023-03-22T03:33:20.256Z,26.70
2023-03-22T03:36:23.380Z,24.92
2023-03-22T03:39:28.638Z,27.42
2023-03-22T03:42:31.575Z,21.77
2023-03-22T03:45:35.942Z,22.98
2023-03-22T03:48:39.583Z,22.40
2023-03-22T03:51:53.176Z,23.15
2023-03-22T03:54:55.149Z,20.13
2023-03-22T03:57:56.707Z,20.98
2023-03-22T04:00:58.561Z,24.13
2023-03-22T04:04:00.229Z,20.35
2023-03-22T04:07:04.294Z,23.00
2023-03-22T04:10:06.598Z,21.67
2023-03-22T04:13:08.217Z,25.73
2023-03-22T04:16:10.058Z,23.88
2023-03-22T04:19:11.827Z,20.23
2023-03-22T04:22:14.722Z,20.83
2023-03-22T04:25:18.645Z,22.13
2023-03-22T04:28:20.412Z,22.77
2023-03-22T04:31:21.998Z,19.27
2023-03-22T04:34:23.568Z,19.20
2023-03-22T04:37:26.983Z,17.58
2023-03-22T04:40:35.056Z,17.73
2023-03-22T04:43:39.103Z,25.45
2023-03-22T04:46:40.766Z,18.70
2023-03-22T04:49:42.417Z,19.67
2023-03-22T04:52:43.965Z,16.65
2023-03-22T04:55:45.512Z,19.25
2023-03-22T04:58:47.931Z,15.82
2023-03-22T05:01:51.378Z,20.35
2023-03-22T05:04:53.031Z,21.73
2023-03-22T05:07:54.590Z,15.88
2023-03-22T05:10:57.959Z,18.20
2023-03-22T05:13:59.633Z,16.45
2023-03-22T05:17:01.269Z,18.60
2023-03-22T05:20:09.233Z,17.33
2023-03-22T05:23:10.911Z,19.02
2023-03-22T05:26:15.598Z,19.42
2023-03-22T05:29:17.171Z,18.33
2023-03-22T05:32:18.753Z,16.95
2023-03-22T05:35:20.480Z,17.63
2023-03-22T05:38:25.264Z,26.75
2023-03-22T05:41:26.862Z,21.35
2023-03-22T05:44:28.595Z,16.48
2023-03-22T05:47:30.257Z,15.38
2023-03-22T05:50:32.437Z,18.35
2023-03-22T05:53:34.503Z,23.38
2023-03-22T05:56:36.210Z,20.65
2023-03-22T05:59:37.741Z,20.58
2023-03-22T06:02:40.420Z,17.15
2023-03-22T06:05:42.067Z,19.83
2023-03-22T06:08:44.018Z,15.95
2023-03-22T06:11:45.601Z,13.88
2023-03-22T06:14:47.135Z,18.25
2023-03-22T06:17:48.745Z,11.75
2023-03-22T06:20:50.448Z,17.88
2023-03-22T06:23:52.074Z,17.75
2023-03-22T06:26:53.807Z,17.58
2023-03-22T06:29:55.390Z,17.38
2023-03-22T06:33:00.415Z,15.00
2023-03-22T06:36:02.985Z,21.77
2023-03-22T06:39:05.163Z,14.73
2023-03-22T06:42:06.809Z,17.67
2023-03-22T06:45:08.833Z,15.85
2023-03-22T06:48:10.432Z,15.70
2023-03-22T06:51:12.053Z,19.23
2023-03-22T06:54:14.741Z,23.05
2023-03-22T06:57:16.311Z,14.35
2023-03-22T07:00:18.341Z,16.08
2023-03-22T07:03:19.912Z,19.38
2023-03-22T07:06:21.450Z,17.15
2023-03-22T07:09:24.776Z,15.60
2023-03-22T07:12:26.334Z,15.15
2023-03-22T07:15:28.262Z,20.58
2023-03-22T07:18:30.544Z,17.90
2023-03-22T07:21:32.128Z,13.77
2023-03-22T07:24:33.701Z,22.25
2023-03-22T07:27:35.261Z,20.13
2023-03-22T07:30:37.598Z,16.45
2023-03-22T07:33:39.964Z,18.23
2023-03-22T07:36:41.575Z,27.88
2023-03-22T07:39:43.131Z,16.75
2023-03-22T07:42:44.886Z,14.88
2023-03-22T07:45:48.056Z,14.82
2023-03-22T07:48:49.735Z,12.85
2023-03-22T07:51:51.301Z,14.63
2023-03-22T07:54:52.883Z,10.50
2023-03-22T07:57:54.858Z,15.13
2023-03-22T08:00:56.591Z,13.02
2023-03-22T08:03:58.325Z,13.90
2023-03-22T08:06:59.950Z,14.27
2023-03-22T08:10:01.848Z,9.60
2023-03-22T08:13:03.698Z,12.45
2023-03-22T08:16:06.495Z,14.40
2023-03-22T08:19:08.056Z,10.95
2023-03-22T08:22:11.973Z,17.25
2023-03-22T08:25:14.106Z,8.88
2023-03-22T08:28:16.615Z,10.25
2023-03-22T08:31:18.614Z,10.88
2023-03-22T08:34:20.796Z,11.15
2023-03-22T08:37:22.351Z,7.80
2023-03-22T08:40:24.164Z,6.93
2023-03-22T08:43:25.767Z,9.70
2023-03-22T08:46:27.650Z,12.75
2023-03-22T08:49:29.308Z,10.73
2023-03-22T08:52:30.917Z,9.00
2023-03-22T08:55:35.335Z,8.38
2023-03-22T08:58:37.101Z,7.45
2023-03-22T09:01:38.805Z,9.48
2023-03-22T09:04:40.656Z,8.73
2023-03-22T09:07:42.247Z,9.52
2023-03-22T09:10:44.022Z,9.52
2023-03-22T09:13:45.873Z,6.40
2023-03-22T09:16:47.977Z,21.65
2023-03-22T09:19:55.603Z,10.68
2023-03-22T09:23:02.184Z,12.77
2023-03-22T09:26:09.242Z,8.00
2023-03-22T09:29:10.901Z,12.20
2023-03-22T09:32:12.548Z,9.27
2023-03-22T09:35:14.517Z,11.30
2023-03-22T09:38:16.428Z,13.20
2023-03-22T09:41:44.047Z,8.98
2023-03-22T09:44:46.514Z,12.80
2023-03-22T09:47:52.657Z,18.33
2023-03-22T09:50:55.160Z,10.23
2023-03-22T09:53:56.981Z,9.35
2023-03-22T09:57:08.329Z,11.25
2023-03-22T10:00:18.807Z,9.88
2023-03-22T10:03:49.957Z,8.77
2023-03-22T10:07:06.712Z,8.65
2023-03-22T10:10:17.928Z,12.65
2023-03-22T10:13:37.613Z,10.48
2023-03-22T10:16:39.941Z,14.32
2023-03-22T10:20:00.147Z,7.60
2023-03-22T10:23:05.589Z,8.05
2023-03-22T10:26:08.771Z,8.27
2023-03-22T10:29:23.542Z,8.13
2023-03-22T10:32:57.124Z,13.60
2023-03-22T10:36:01.172Z,14.90
2023-03-22T10:39:24.143Z,10.38
2023-03-22T10:42:28.739Z,9.07
2023-03-22T10:45:34.076Z,13.48
2023-03-22T10:48:45.004Z,11.57
2023-03-22T10:51:50.057Z,11.48
2023-03-22T10:54:51.921Z,10.88
2023-03-22T10:58:15.552Z,9.75
2023-03-22T11:01:29.511Z,14.20
2023-03-22T11:04:31.392Z,7.72
2023-03-22T11:07:46.792Z,13.43
2023-03-22T11:10:51.213Z,9.48
2023-03-22T11:14:01.766Z,7.22
2023-03-22T11:17:06.446Z,14.65
2023-03-22T11:20:18.883Z,11.73
2023-03-22T11:23:21.592Z,14.00
2023-03-22T11:26:30.558Z,8.30
2023-03-22T11:29:51.328Z,10.73
2023-03-22T11:36:05.449Z,10.13
2023-03-22T11:39:08.065Z,9.88
2023-03-22T11:42:20.891Z,15.32
2023-03-22T11:45:32.214Z,9.70
2023-03-22T11:48:35.405Z,8.77
2023-03-22T11:51:39.591Z,10.77
2023-03-22T11:54:42.673Z,10.73
2023-03-22T11:57:44.241Z,7.90
2023-03-22T12:00:46.500Z,8.63
2023-03-22T12:03:54.681Z,8.43
2023-03-22T12:07:00.051Z,6.50
2023-03-22T12:10:13.009Z,7.68
2023-03-22T12:13:24.657Z,6.68
2023-03-22T12:16:32.418Z,6.47
2023-03-22T12:19:45.500Z,7.40
2023-03-22T12:22:53.802Z,8.32
2023-03-22T12:25:55.576Z,8.13
2023-03-22T12:29:03.600Z,7.45
2023-03-22T12:32:13.531Z,11.02
2023-03-22T12:35:21.772Z,7.65
2023-03-22T12:38:46.091Z,10.02
2023-03-22T12:41:50.411Z,6.05
2023-03-22T12:45:04.751Z,4.78
2023-03-22T12:48:18.875Z,6.30
2023-03-22T12:51:20.566Z,7.82
2023-03-22T12:54:25.298Z,14.88
2023-03-22T12:57:27.246Z,6.72
2023-03-22T13:00:33.143Z,6.63
2023-03-22T13:03:44.851Z,7.68
2023-03-22T13:06:47.626Z,8.40
2023-03-22T13:09:50.856Z,7.20
2023-03-22T13:13:23.282Z,8.80
2023-03-22T13:16:52.886Z,5.75
2023-03-22T13:20:06.498Z,5.50
2023-03-22T13:23:11.835Z,6.35
2023-03-22T13:26:16.136Z,7.05
2023-03-22T13:29:21.011Z,6.82
2023-03-22T13:32:30.832Z,8.07
2023-03-22T13:35:48.771Z,10.18
2023-03-22T13:38:56.732Z,6.07
2023-03-22T13:42:08.294Z,9.57
2023-03-22T13:45:33.391Z,7.45
2023-03-22T13:48:46.721Z,6.38
2023-03-22T13:51:49.260Z,8.30
2023-03-22T13:54:52.503Z,3.72
2023-03-22T13:57:59.164Z,6.90
2023-03-22T14:01:01.033Z,10.38
2023-03-22T14:04:09.389Z,7.47
2023-03-22T14:07:22.500Z,4.88
2023-03-22T14:10:37.001Z,10.70
2023-03-22T14:13:44.281Z,4.78
2023-03-22T14:16:48.605Z,8.98
2023-03-22T14:19:52.178Z,8.23
